createdAt,value
2023-11-03T00:02:00.556Z,96179.09
2023-11-03T00:04:32.245Z,96179.88
2023-11-03T00:07:02.890Z,96174.52
2023-11-03T00:09:43.051Z,96168.05
2023-11-03T00:12:14.907Z,96160.85
2023-11-03T00:14:46.239Z,96160.23
2023-11-03T00:17:19.040Z,96150.42
2023-11-03T00:19:49.137Z,96149.11
2023-11-03T00:22:21.075Z,96146.15
2023-11-03T00:24:53.251Z,96150.83
2023-11-03T00:27:27.897Z,96150.48
2023-11-03T00:30:00.234Z,96151.54
2023-11-03T00:32:34.256Z,96154.56
2023-11-03T00:35:07.714Z,96152.45
2023-11-03T00:37:38.652Z,96150.54
2023-11-03T00:40:14.234Z,96148.98
2023-11-03T00:42:49.340Z,96151.23
2023-11-03T00:45:27.786Z,96144.77
2023-11-03T00:47:57.527Z,96146.89
2023-11-03T00:50:28.190Z,96157.56
2023-11-03T00:52:59.189Z,96158.30
2023-11-03T00:55:32.425Z,96155.90
2023-11-03T00:58:03.177Z,96154.64
2023-11-03T01:00:39.441Z,96152.73
2023-11-03T01:03:11.084Z,96147.20
2023-11-03T01:05:42.785Z,96149.77
2023-11-03T01:08:12.099Z,96150.37
2023-11-03T01:10:43.161Z,96154.06
2023-11-03T01:13:16.275Z,96153.41
2023-11-03T01:15:48.624Z,96149.16
2023-11-03T01:18:18.748Z,96153.80
2023-11-03T01:20:56.500Z,96148.00
2023-11-03T01:23:32.695Z,96147.21
2023-11-03T01:26:06.220Z,96144.13
2023-11-03T01:28:42.676Z,96140.36
2023-11-03T01:31:15.133Z,96137.79
2023-11-03T01:33:49.113Z,96131.57
2023-11-03T01:36:20.503Z,96130.04
2023-11-03T01:38:53.263Z,96132.44
2023-11-03T01:41:25.332Z,96133.48
2023-11-03T01:44:17.484Z,96125.63
2023-11-03T01:46:54.653Z,96112.66
2023-11-03T01:49:26.943Z,96113.15
2023-11-03T01:52:03.923Z,96118.51
2023-11-03T01:54:34.466Z,96121.19
2023-11-03T01:57:08.753Z,96111.80
2023-11-03T01:59:39.061Z,96105.48
2023-11-03T02:02:11.838Z,96107.58
2023-11-03T02:04:44.033Z,96105.30
2023-11-03T02:07:16.753Z,96106.02
2023-11-03T02:09:50.647Z,96097.67
2023-11-03T02:12:24.992Z,96094.99
2023-11-03T02:14:56.425Z,96088.27
2023-11-03T02:17:28.841Z,96082.08
2023-11-03T02:20:00.735Z,96069.59
2023-11-03T02:22:33.888Z,96067.85
2023-11-03T02:25:06.181Z,96061.55
2023-11-03T02:27:38.082Z,96051.55
2023-11-03T02:30:18.089Z,96036.91
2023-11-03T02:32:51.984Z,96023.19
2023-11-03T02:35:24.628Z,96017.84
2023-11-03T02:37:56.771Z,96022.14
2023-11-03T02:40:28.657Z,96038.91
2023-11-03T02:43:00.677Z,96040.17
2023-11-03T02:45:33.057Z,96031.84
2023-11-03T02:48:06.427Z,96021.98
2023-11-03T02:50:38.072Z,96018.59
2023-11-03T02:53:09.768Z,96011.72
2023-11-03T02:55:44.429Z,96003.37
2023-11-03T02:58:18.034Z,95997.55
2023-11-03T03:00:50.336Z,95995.77
2023-11-03T03:03:23.003Z,95992.05
2023-11-03T03:05:56.225Z,95984.63
2023-11-03T03:08:27.416Z,95986.39
2023-11-03T03:11:00.826Z,95985.73
2023-11-03T03:13:32.672Z,95984.28
2023-11-03T03:16:05.617Z,95982.96
2023-11-03T03:18:37.863Z,95984.20
2023-11-03T03:21:08.888Z,95987.52
2023-11-03T03:23:39.073Z,95989.89
2023-11-03T03:26:10.036Z,95994.77
2023-11-03T03:28:42.248Z,95990.04
2023-11-03T03:31:12.849Z,95988.33
2023-11-03T03:33:45.378Z,95977.98
2023-11-03T03:36:17.236Z,95971.65
2023-11-03T03:38:48.504Z,95968.34
2023-11-03T03:41:23.515Z,95968.02
2023-11-03T03:43:54.899Z,95959.90
2023-11-03T03:46:27.392Z,95954.58
2023-11-03T03:49:00.263Z,95948.23
2023-11-03T03:51:31.518Z,95944.04
2023-11-03T03:54:00.883Z,95943.66
2023-11-03T03:56:33.086Z,95942.58
2023-11-03T03:59:05.842Z,95949.80
2023-11-03T04:01:37.021Z,95949.39
2023-11-03T04:04:08.575Z,95945.88
2023-11-03T04:06:38.745Z,95944.78
2023-11-03T04:09:11.691Z,95941.23
2023-11-03T04:11:41.761Z,95939.51
2023-11-03T04:14:13.020Z,95936.30
2023-11-03T04:16:43.326Z,95941.16
2023-11-03T04:19:12.419Z,95939.35
2023-11-03T04:21:44.644Z,95933.66
2023-11-03T04:24:13.699Z,95934.25
2023-11-03T04:26:43.227Z,95927.70
2023-11-03T04:29:12.932Z,95933.36
2023-11-03T04:31:43.097Z,95928.77
2023-11-03T04:34:14.916Z,95922.25
2023-11-03T04:36:44.929Z,95929.38
2023-11-03T04:39:15.165Z,95932.05
2023-11-03T04:41:45.841Z,95939.45
2023-11-03T04:44:16.667Z,95936.30
2023-11-03T04:46:47.989Z,95940.62
2023-11-03T04:49:20.836Z,95942.07
2023-11-03T04:51:51.269Z,95929.83
2023-11-03T04:54:21.947Z,95931.69
2023-11-03T04:56:51.559Z,95932.80
2023-11-03T04:59:22.907Z,95931.08
2023-11-03T05:01:53.376Z,95919.27
2023-11-03T05:04:23.718Z,95911.47
2023-11-03T05:06:53.822Z,95900.42
2023-11-03T05:09:23.200Z,95898.15
2023-11-03T05:11:54.290Z,95892.31
2023-11-03T05:14:24.494Z,95897.55
2023-11-03T05:16:54.440Z,95901.04
2023-11-03T05:19:24.323Z,95900.28
2023-11-03T05:21:54.354Z,95907.52
2023-11-03T05:24:24.562Z,95897.48
2023-11-03T05:26:54.911Z,95892.94
2023-11-03T05:29:28.509Z,95891.78
2023-11-03T05:32:00.314Z,95905.59
2023-11-03T05:34:29.759Z,95914.14
2023-11-03T05:36:59.894Z,95917.86
2023-11-03T05:39:29.179Z,95913.75
2023-11-03T05:41:59.031Z,95920.52
2023-11-03T05:44:28.648Z,95918.77
2023-11-03T05:46:58.789Z,95908.81
2023-11-03T05:49:29.415Z,95903.35
2023-11-03T05:51:59.113Z,95885.98
2023-11-03T05:54:27.997Z,95868.97
2023-11-03T05:56:59.391Z,95869.95
2023-11-03T05:59:28.270Z,95867.48
2023-11-03T06:01:57.777Z,95864.52
2023-11-03T06:04:29.775Z,95849.61
2023-11-03T06:06:58.926Z,95837.98
2023-11-03T06:09:29.660Z,95831.77
2023-11-03T06:11:58.637Z,95828.08
2023-11-03T06:14:27.821Z,95817.67
2023-11-03T06:16:59.991Z,95802.92
2023-11-03T06:19:33.981Z,95814.70
2023-11-03T06:22:03.780Z,95825.82
2023-11-03T06:24:32.926Z,95823.31
2023-11-03T06:27:03.749Z,95804.79
2023-11-03T06:29:33.267Z,95798.35
2023-11-03T06:32:04.570Z,95805.76
2023-11-03T06:34:33.968Z,95811.56
2023-11-03T06:37:02.785Z,95804.42
2023-11-03T06:39:32.734Z,95810.27
2023-11-03T06:42:10.034Z,95813.52
2023-11-03T06:44:39.517Z,95814.86
2023-11-03T06:47:10.914Z,95817.48
2023-11-03T06:49:40.398Z,95814.61
2023-11-03T06:52:10.037Z,95804.52
2023-11-03T06:54:39.587Z,95799.46
2023-11-03T06:57:08.895Z,95808.56
2023-11-03T06:59:37.952Z,95811.81
2023-11-03T07:02:07.287Z,95814.30
2023-11-03T07:04:37.092Z,95807.34
2023-11-03T07:07:09.404Z,95795.23
2023-11-03T07:09:38.244Z,95797.16
2023-11-03T07:12:07.785Z,95800.92
2023-11-03T07:14:36.852Z,95785.86
2023-11-03T07:17:08.092Z,95781.30
2023-11-03T07:19:37.628Z,95777.75
2023-11-03T07:22:07.035Z,95777.45
2023-11-03T07:24:37.339Z,95784.20
2023-11-03T07:27:06.036Z,95787.17
2023-11-03T07:29:36.024Z,95783.71
2023-11-03T07:32:06.996Z,95785.88
2023-11-03T07:34:35.838Z,95785.49
2023-11-03T07:37:05.087Z,95783.62
2023-11-03T07:39:34.450Z,95784.33
2023-11-03T07:42:03.455Z,95792.54
2023-11-03T07:44:33.572Z,95797.04
2023-11-03T07:47:07.001Z,95801.73
2023-11-03T07:49:38.327Z,95809.58
2023-11-03T07:52:08.113Z,95814.21
2023-11-03T07:54:37.827Z,95804.23
2023-11-03T07:57:06.525Z,95791.25
2023-11-03T07:59:36.488Z,95798.08
2023-11-03T08:02:05.583Z,95799.91
2023-11-03T08:04:35.482Z,95782.02
2023-11-03T08:07:04.956Z,95774.99
2023-11-03T08:09:34.048Z,95770.01
2023-11-03T08:12:04.321Z,95775.67
2023-11-03T08:14:33.453Z,95765.71
2023-11-03T08:17:02.486Z,95763.20
2023-11-03T08:19:33.752Z,95752.85
2023-11-03T08:22:02.743Z,95754.31
2023-11-03T08:24:34.460Z,95759.50
2023-11-03T08:27:03.737Z,95761.52
2023-11-03T08:29:33.465Z,95766.45
2023-11-03T08:32:02.047Z,95770.79
2023-11-03T08:34:31.335Z,95780.14
2023-11-03T08:37:00.791Z,95783.73
2023-11-03T08:39:30.546Z,95787.52
2023-11-03T08:42:03.844Z,95792.30
2023-11-03T08:44:33.353Z,95794.97
2023-11-03T08:47:03.363Z,95798.30
2023-11-03T08:49:32.532Z,95794.94
2023-11-03T08:52:02.106Z,95792.27
2023-11-03T08:54:31.183Z,95789.10
2023-11-03T08:57:00.495Z,95776.02
2023-11-03T08:59:30.549Z,95759.10
2023-11-03T09:01:59.580Z,95764.29
2023-11-03T09:04:29.098Z,95768.95
2023-11-03T09:06:58.212Z,95755.77
2023-11-03T09:09:28.724Z,95753.42
2023-11-03T09:11:57.722Z,95744.60
2023-11-03T09:14:27.101Z,95732.27
2023-11-03T09:16:59.307Z,95734.86
2023-11-03T09:19:29.932Z,95726.40
2023-11-03T09:22:03.779Z,95719.81
2023-11-03T09:24:35.451Z,95715.17
2023-11-03T09:27:09.162Z,95704.98
2023-11-03T09:29:39.708Z,95691.70
2023-11-03T09:32:09.719Z,95702.70
2023-11-03T09:34:41.824Z,95703.11
2023-11-03T09:37:12.976Z,95706.94
2023-11-03T09:39:44.198Z,95710.64
2023-11-03T09:42:13.469Z,95704.66
2023-11-03T09:44:42.666Z,95689.24
2023-11-03T09:47:15.762Z,95668.05
2023-11-03T09:49:45.545Z,95646.91
2023-11-03T09:52:16.618Z,95640.66
2023-11-03T09:54:47.676Z,95640.64
2023-11-03T09:57:16.777Z,95630.44
2023-11-03T09:59:46.127Z,95615.10
2023-11-03T10:02:22.035Z,95616.13
2023-11-03T10:04:51.766Z,95622.95
2023-11-03T10:07:21.665Z,95633.30
2023-11-03T10:09:52.211Z,95634.05
2023-11-03T10:12:22.197Z,95632.33
2023-11-03T10:14:52.403Z,95631.77
2023-11-03T10:17:21.280Z,95638.23
2023-11-03T10:19:50.674Z,95630.92
2023-11-03T10:22:19.687Z,95629.40
2023-11-03T10:24:49.193Z,95625.25
2023-11-03T10:27:20.731Z,95625.98
2023-11-03T10:29:53.626Z,95624.92
2023-11-03T10:32:23.046Z,95620.77
2023-11-03T10:34:56.097Z,95617.27
2023-11-03T10:37:25.302Z,95608.67
2023-11-03T10:39:54.097Z,95600.95
2023-11-03T10:42:25.734Z,95601.38
2023-11-03T10:45:00.359Z,95611.15
2023-11-03T10:47:33.060Z,95614.68
2023-11-03T10:50:10.814Z,95607.29
2023-11-03T10:52:46.442Z,95601.39
2023-11-03T10:55:18.727Z,95594.89
2023-11-03T10:57:47.963Z,95593.71
2023-11-03T11:00:33.462Z,95591.16
2023-11-03T11:03:20.808Z,95588.17
2023-11-03T11:06:01.292Z,95578.89
2023-11-03T11:08:33.505Z,95560.44
2023-11-03T11:11:07.092Z,95557.02
2023-11-03T11:13:36.620Z,95560.63
2023-11-03T11:16:06.547Z,95566.44
2023-11-03T11:18:44.311Z,95560.70
2023-11-03T11:21:18.349Z,95547.67
2023-11-03T11:23:49.619Z,95537.10
2023-11-03T11:26:32.067Z,95537.19
2023-11-03T11:29:05.420Z,95534.55
2023-11-03T11:31:38.142Z,95549.41
2023-11-03T11:34:16.760Z,95540.91
2023-11-03T11:36:49.061Z,95549.42
2023-11-03T11:39:20.972Z,95550.68
2023-11-03T11:41:52.979Z,95542.48
2023-11-03T11:44:32.567Z,95536.88
2023-11-03T11:47:04.785Z,95527.75
2023-11-03T11:49:34.518Z,95522.06
2023-11-03T11:52:04.049Z,95511.08
2023-11-03T11:54:33.035Z,95505.98
2023-11-03T11:57:04.511Z,95502.94
2023-11-03T11:59:33.764Z,95499.64
2023-11-03T12:02:05.327Z,95495.81
2023-11-03T12:04:34.912Z,95490.27
2023-11-03T12:07:05.571Z,95481.73
2023-11-03T12:09:41.698Z,95454.43
2023-11-03T12:12:11.789Z,95450.77
2023-11-03T12:14:41.034Z,95447.54
2023-11-03T12:17:10.008Z,95440.81
2023-11-03T12:19:39.266Z,95439.02
2023-11-03T12:22:08.222Z,95435.21
2023-11-03T12:24:38.321Z,95425.19
2023-11-03T12:27:07.313Z,95425.89
2023-11-03T12:29:37.816Z,95423.22
2023-11-03T12:32:07.138Z,95420.25
2023-11-03T12:34:37.880Z,95416.34
2023-11-03T12:37:07.434Z,95414.19
2023-11-03T12:39:54.049Z,95420.83
2023-11-03T12:42:25.842Z,95423.21
2023-11-03T12:44:58.094Z,95434.52
2023-11-03T12:47:54.167Z,95442.36
2023-11-03T12:50:27.135Z,95448.20
2023-11-03T12:53:00.083Z,95444.48
2023-11-03T12:55:31.141Z,95443.52
2023-11-03T12:58:00.170Z,95433.14
2023-11-03T13:00:33.540Z,95425.20
2023-11-03T13:03:02.608Z,95424.42
2023-11-03T13:05:33.662Z,95429.74
2023-11-03T13:08:04.734Z,95427.93
2023-11-03T13:10:36.914Z,95414.54
2023-11-03T13:13:09.567Z,95414.54
2023-11-03T13:15:39.224Z,95412.38
2023-11-03T13:18:12.171Z,95411.98
2023-11-03T13:20:42.093Z,95417.71
2023-11-03T13:23:15.745Z,95412.20
2023-11-03T13:25:46.234Z,95406.77
2023-11-03T13:28:15.525Z,95405.66
2023-11-03T13:30:46.641Z,95397.81
2023-11-03T13:33:15.732Z,95393.65
2023-11-03T13:35:45.450Z,95397.98
2023-11-03T13:38:14.537Z,95411.54
2023-11-03T13:40:45.383Z,95418.02
2023-11-03T13:43:14.503Z,95426.36
2023-11-03T13:45:46.055Z,95437.23
2023-11-03T13:48:15.307Z,95438.50
2023-11-03T13:50:44.613Z,95440.64
2023-11-03T13:53:14.836Z,95443.41
2023-11-03T13:55:44.096Z,95436.52
2023-11-03T13:58:16.835Z,95427.41
2023-11-03T14:00:46.735Z,95416.20
2023-11-03T14:03:16.655Z,95420.02
2023-11-03T14:05:46.209Z,95413.58
2023-11-03T14:08:18.079Z,95414.69
2023-11-03T14:10:48.217Z,95417.09
2023-11-03T14:13:17.775Z,95414.59
2023-11-03T14:15:46.990Z,95411.09
2023-11-03T14:18:16.922Z,95403.85
2023-11-03T14:20:48.461Z,95397.30
2023-11-03T14:23:22.216Z,95392.61
2023-11-03T14:25:51.447Z,95388.34
2023-11-03T14:28:21.554Z,95380.73
2023-11-03T14:30:51.534Z,95372.28
2023-11-03T14:33:21.548Z,95370.58
2023-11-03T14:35:50.253Z,95356.56
2023-11-03T14:38:21.594Z,95349.85
2023-11-03T14:40:51.000Z,95341.70
2023-11-03T14:43:22.004Z,95341.73
2023-11-03T14:45:51.653Z,95358.29
2023-11-03T14:48:21.655Z,95357.14
2023-11-03T14:50:52.150Z,95359.00
2023-11-03T14:53:21.237Z,95369.04
2023-11-03T14:55:51.332Z,95365.65
2023-11-03T14:58:20.811Z,95360.92
2023-11-03T15:00:51.043Z,95357.55
2023-11-03T15:03:23.507Z,95373.56
2023-11-03T15:05:53.512Z,95384.45
2023-11-03T15:08:22.767Z,95392.76
2023-11-03T15:10:52.979Z,95397.08
2023-11-03T15:13:22.137Z,95407.27
2023-11-03T15:15:53.944Z,95405.96
2023-11-03T15:18:24.705Z,95402.02
2023-11-03T15:20:54.972Z,95405.18
2023-11-03T15:23:25.404Z,95413.37
2023-11-03T15:25:56.956Z,95429.33
2023-11-03T15:28:26.898Z,95442.98
2023-11-03T15:30:58.495Z,95453.16
2023-11-03T15:33:27.823Z,95470.42
2023-11-03T15:35:58.005Z,95487.74
2023-11-03T15:38:27.013Z,95495.56
2023-11-03T15:40:56.882Z,95507.83
2023-11-03T15:43:26.263Z,95522.14
2023-11-03T15:45:58.675Z,95526.91
2023-11-03T15:48:29.480Z,95535.27
2023-11-03T15:50:58.944Z,95542.14
2023-11-03T15:53:29.319Z,95553.58
2023-11-03T15:55:59.289Z,95568.21
2023-11-03T15:58:29.571Z,95573.17
2023-11-03T16:00:59.219Z,95574.42
2023-11-03T16:03:28.923Z,95562.38
2023-11-03T16:06:01.090Z,95556.34
2023-11-03T16:08:30.284Z,95552.65
2023-11-03T16:10:59.175Z,95545.02
2023-11-03T16:13:28.623Z,95549.95
2023-11-03T16:15:58.395Z,95557.49
2023-11-03T16:18:28.521Z,95559.71
2023-11-03T16:20:57.555Z,95561.54
2023-11-03T16:23:26.388Z,95566.02
2023-11-03T16:25:57.251Z,95566.11
2023-11-03T16:28:27.746Z,95563.45
2023-11-03T16:30:56.653Z,95552.65
2023-11-03T16:33:26.235Z,95551.95
2023-11-03T16:35:56.404Z,95558.89
2023-11-03T16:38:25.274Z,95564.99
2023-11-03T16:40:54.130Z,95566.70
2023-11-03T16:43:23.474Z,95570.15
2023-11-03T16:45:52.862Z,95575.06
2023-11-03T16:48:27.982Z,95578.23
2023-11-03T16:50:57.301Z,95589.71
2023-11-03T16:53:27.936Z,95593.93
2023-11-03T16:55:57.792Z,95589.26
2023-11-03T16:58:29.137Z,95600.80
2023-11-03T17:00:58.625Z,95614.05
2023-11-03T17:03:28.193Z,95618.20
2023-11-03T17:05:57.509Z,95616.97
2023-11-03T17:08:28.776Z,95621.86
2023-11-03T17:10:57.666Z,95631.65
2023-11-03T17:13:28.064Z,95635.13
2023-11-03T17:16:00.526Z,95616.45
2023-11-03T17:18:29.484Z,95634.39
2023-11-03T17:20:58.625Z,95674.31
2023-11-03T17:23:28.128Z,95686.59
2023-11-03T17:25:57.117Z,95698.39
2023-11-03T17:28:26.337Z,95738.41
2023-11-03T17:30:59.354Z,95738.64
2023-11-03T17:33:28.827Z,95733.24
2023-11-03T17:35:59.392Z,95732.83
2023-11-03T17:38:28.238Z,95730.90
2023-11-03T17:40:57.120Z,95722.20
2023-11-03T17:43:26.154Z,95716.88
2023-11-03T17:45:55.624Z,95719.66
2023-11-03T17:48:27.485Z,95717.12
2023-11-03T17:50:58.265Z,95720.33
2023-11-03T17:53:28.021Z,95723.64
2023-11-03T17:55:57.123Z,95716.70
2023-11-03T17:58:26.129Z,95686.92
2023-11-03T18:00:58.687Z,95662.72
2023-11-03T18:03:28.394Z,95636.55
2023-11-03T18:05:57.574Z,95610.62
2023-11-03T18:08:26.591Z,95621.84
2023-11-03T18:10:55.477Z,95612.31
2023-11-03T18:13:24.489Z,95613.45
2023-11-03T18:15:53.789Z,95625.77
2023-11-03T18:18:23.589Z,95631.67
2023-11-03T18:20:54.819Z,95626.94
2023-11-03T18:23:24.648Z,95624.52
2023-11-03T18:25:55.064Z,95622.45
2023-11-03T18:28:25.367Z,95627.20
2023-11-03T18:30:54.785Z,95634.30
2023-11-03T18:33:23.784Z,95642.59
2023-11-03T18:35:52.577Z,95658.65
2023-11-03T18:38:23.712Z,95681.11
2023-11-03T18:40:52.846Z,95685.95
2023-11-03T18:43:21.938Z,95678.99
2023-11-03T18:45:51.012Z,95683.23
2023-11-03T18:48:20.245Z,95688.52
2023-11-03T18:51:24.546Z,95678.67
2023-11-03T18:55:21.611Z,95675.25
2023-11-03T19:02:18.199Z,95709.40
2023-11-03T19:05:12.150Z,95707.44
2023-11-03T19:07:34.221Z,95705.04
2023-11-03T19:10:06.949Z,95707.86
2023-11-03T19:12:36.624Z,95711.61
2023-11-03T19:15:08.752Z,95728.27
2023-11-03T19:17:40.336Z,95736.72
2023-11-03T19:20:11.867Z,95735.88
2023-11-03T19:22:40.805Z,95730.98
2023-11-03T19:25:12.129Z,95731.11
2023-11-03T19:27:41.182Z,95733.41
2023-11-03T19:30:10.729Z,95743.44
2023-11-03T19:32:39.980Z,95738.76
2023-11-03T19:35:10.833Z,95729.15
2023-11-03T19:37:43.159Z,95746.80
2023-11-03T19:40:12.566Z,95743.98
2023-11-03T19:42:44.803Z,95736.45
2023-11-03T19:45:14.352Z,95731.17
2023-11-03T19:47:43.139Z,95725.08
2023-11-03T19:50:14.015Z,95734.13
2023-11-03T19:52:43.372Z,95747.13
2023-11-03T19:55:14.549Z,95748.20
2023-11-03T19:57:43.655Z,95744.23
2023-11-03T20:00:13.517Z,95743.27
2023-11-03T20:02:42.836Z,95735.13
2023-11-03T20:05:12.616Z,95733.30
2023-11-03T20:07:41.510Z,95734.80
2023-11-03T20:10:11.137Z,95737.91
2023-11-03T20:12:41.090Z,95733.51
2023-11-03T20:15:10.261Z,95733.43
2023-11-03T20:17:39.497Z,95731.05
2023-11-03T20:20:10.626Z,95740.78
2023-11-03T20:22:39.777Z,95740.85
2023-11-03T20:25:09.080Z,95737.73
2023-11-03T20:27:39.180Z,95742.83
2023-11-03T20:30:10.377Z,95765.83
2023-11-03T20:32:39.260Z,95766.83
2023-11-03T20:35:11.300Z,95766.56
2023-11-03T20:37:42.074Z,95766.64
2023-11-03T20:40:12.047Z,95756.10
2023-11-03T20:42:41.071Z,95759.74
2023-11-03T20:45:15.817Z,95766.08
2023-11-03T20:47:46.235Z,95763.85
2023-11-03T20:50:16.265Z,95763.75
2023-11-03T20:52:45.496Z,95772.39
2023-11-03T20:55:15.632Z,95777.64
2023-11-03T20:57:45.420Z,95777.63
2023-11-03T21:00:15.008Z,95777.88
2023-11-03T21:02:49.442Z,95775.73
2023-11-03T21:05:22.599Z,95772.60
2023-11-03T21:07:52.015Z,95779.61
2023-11-03T21:10:22.114Z,95775.91
2023-11-03T21:12:51.772Z,95769.64
2023-11-03T21:15:21.199Z,95759.08
2023-11-03T21:17:52.644Z,95747.98
2023-11-03T21:20:22.309Z,95746.09
2023-11-03T21:22:54.311Z,95751.27
2023-11-03T21:25:23.602Z,95755.79
2023-11-03T21:27:55.299Z,95752.94
2023-11-03T21:30:24.917Z,95752.77
2023-11-03T21:32:54.524Z,95757.67
2023-11-03T21:35:23.898Z,95765.23
2023-11-03T21:37:56.609Z,95769.77
2023-11-03T21:40:25.654Z,95770.83
2023-11-03T21:42:55.671Z,95767.89
2023-11-03T21:45:25.406Z,95768.58
2023-11-03T21:47:57.471Z,95762.20
2023-11-03T21:50:27.279Z,95758.56
2023-11-03T21:52:56.970Z,95747.30
2023-11-03T21:55:26.989Z,95744.02
2023-11-03T21:57:55.765Z,95745.14
2023-11-03T22:00:25.487Z,95741.14
2023-11-03T22:02:55.039Z,95733.85
2023-11-03T22:05:24.425Z,95720.00
2023-11-03T22:07:54.506Z,95716.33
2023-11-03T22:10:23.598Z,95726.67
2023-11-03T22:12:53.154Z,95745.11
2023-11-03T22:15:22.714Z,95747.54
2023-11-03T22:17:57.539Z,95748.90
2023-11-03T22:20:29.430Z,95752.77
2023-11-03T22:23:02.526Z,95760.52
2023-11-03T22:25:33.353Z,95761.38
2023-11-03T22:28:04.280Z,95744.64
2023-11-03T22:30:39.951Z,95743.52
2023-11-03T22:33:13.248Z,95742.95
2023-11-03T22:35:43.664Z,95734.83
2023-11-03T22:38:12.839Z,95741.54
2023-11-03T22:40:42.236Z,95749.70
2023-11-03T22:43:13.292Z,95738.89
2023-11-03T22:45:43.025Z,95743.29
2023-11-03T22:48:12.303Z,95749.19
2023-11-03T22:50:41.588Z,95747.81
2023-11-03T22:53:11.895Z,95745.41
2023-11-03T22:55:41.487Z,95748.70
2023-11-03T22:58:11.540Z,95756.56
2023-11-03T23:00:41.282Z,95760.34
2023-11-03T23:03:11.540Z,95753.52
2023-11-03T23:05:42.049Z,95750.31
2023-11-03T23:08:13.029Z,95750.39
2023-11-03T23:10:44.808Z,95748.80
2023-11-03T23:13:14.165Z,95747.53
2023-11-03T23:15:44.904Z,95744.75
2023-11-03T23:18:15.315Z,95737.71
2023-11-03T23:20:46.048Z,95726.98
2023-11-03T23:23:15.908Z,95712.55
2023-11-03T23:25:45.451Z,95703.67
2023-11-03T23:28:16.319Z,95709.11
2023-11-03T23:30:46.822Z,95714.00
2023-11-03T23:33:17.589Z,95718.71
2023-11-03T23:35:47.631Z,95724.67
2023-11-03T23:38:16.829Z,95728.60
2023-11-03T23:40:47.213Z,95725.63
2023-11-03T23:43:17.383Z,95733.46
2023-11-03T23:45:47.782Z,95736.21
2023-11-03T23:48:21.879Z,95735.81
2023-11-03T23:50:51.641Z,95732.44
2023-11-03T23:53:22.204Z,95738.52
2023-11-03T23:55:51.353Z,95742.04
2023-11-03T23:58:21.852Z,95752.39
